Time;durP1;ratioP1;P1;durP2;ratioP2;P2;SDS_P1;SDS_P2;PMS_P1;PMS_P2;Temp;Humidity;BMP_temperature;BMP_pressure;BME280_temperature;BME280_humidity;BME280_pressure;Samples;Min_cycle;Max_cycle;Signal;HPM_P1;HPM_P2
2022/01/27 00:01:09;;;;;;;17.60;10.75;;;22.60;39.40;;;;;;6021653;29;83143;-63
2022/01/27 00:04:25;;;;;;;17.00;10.05;;;22.60;39.40;;;;;;6070572;28;83470;-63
2022/01/27 00:07:26;;;;;;;19.38;10.90;;;22.60;39.40;;;;;;6060204;28;84362;-63
2022/01/27 00:10:45;;;;;;;18.83;10.63;;;22.60;39.40;;;;;;6059770;28;83018;-63
2022/01/27 00:13:56;;;;;;;20.33;11.50;;;22.60;39.50;;;;;;6063392;28;83148;-63
2022/01/27 00:16:58;;;;;;;17.38;9.68;;;22.60;39.40;;;;;;6044387;28;86532;-63
2022/01/27 00:19:59;;;;;;;20.08;10.43;;;22.60;39.40;;;;;;6060702;28;83434;-63
2022/01/27 00:22:59;;;;;;;14.20;9.18;;;22.60;39.40;;;;;;6058696;28;83754;-62
2022/01/27 00:26:00;;;;;;;15.38;9.70;;;22.50;39.40;;;;;;6059887;28;83491;-63
2022/01/27 00:29:00;;;;;;;16.27;9.43;;;22.60;39.40;;;;;;6061945;28;81936;-64
2022/01/27 00:32:02;;;;;;;15.68;8.90;;;22.60;39.40;;;;;;6059795;28;80568;-63
2022/01/27 00:35:02;;;;;;;13.90;8.85;;;22.60;39.30;;;;;;6049794;28;80661;-63
2022/01/27 00:38:03;;;;;;;16.67;9.25;;;22.50;39.40;;;;;;6035144;28;81631;-63
2022/01/27 00:41:03;;;;;;;13.00;8.43;;;22.50;39.30;;;;;;6066243;28;81631;-64
2022/01/27 00:44:04;;;;;;;13.65;8.27;;;22.50;39.20;;;;;;6047764;28;81041;-63
2022/01/27 00:47:04;;;;;;;13.75;7.95;;;22.50;39.20;;;;;;6065276;28;80709;-63
2022/01/27 00:50:05;;;;;;;13.07;7.82;;;22.50;39.20;;;;;;6062737;28;80312;-63
2022/01/27 00:53:19;;;;;;;17.02;8.27;;;22.50;39.10;;;;;;6080115;28;80744;-64
2022/01/27 00:56:25;;;;;;;12.57;7.70;;;22.50;39.10;;;;;;6064066;28;80642;-64
2022/01/27 00:59:34;;;;;;;12.85;7.68;;;22.50;39.70;;;;;;6063557;28;81549;-63
2022/01/27 01:06:01;;;;;;;12.88;7.30;;;22.50;38.90;;;;;;6064945;28;81007;-64
2022/01/27 01:15:24;;;;;;;10.93;6.97;;;22.50;38.90;;;;;;6066617;28;85111;-64
2022/01/27 01:18:55;;;;;;;11.23;6.57;;;22.50;38.90;;;;;;6064535;28;80384;-64
2022/01/27 01:32:06;;;;;;;9.32;6.45;;;22.50;39.40;;;;;;6063607;28;81443;-64
2022/01/27 01:35:08;;;;;;;9.80;6.22;;;22.50;39.30;;;;;;6064291;28;81525;-64
2022/01/27 01:38:08;;;;;;;10.85;6.45;;;22.50;39.30;;;;;;6061221;28;81103;-64
2022/01/27 01:41:09;;;;;;;9.18;5.95;;;22.50;39.20;;;;;;6074159;28;80429;-63
2022/01/27 01:44:09;;;;;;;13.50;6.53;;;22.40;39.30;;;;;;6051360;28;80789;-63
2022/01/27 01:47:10;;;;;;;10.55;6.55;;;22.50;39.20;;;;;;6063164;28;81262;-64
2022/01/27 01:50:10;;;;;;;8.90;5.88;;;22.40;39.10;;;;;;6064117;28;80515;-64
2022/01/27 01:53:11;;;;;;;7.55;5.55;;;22.40;39.10;;;;;;6065178;28;80578;-64
2022/01/27 01:56:11;;;;;;;12.63;6.72;;;22.40;39.20;;;;;;6067859;28;80681;-64
2022/01/27 01:59:12;;;;;;;11.73;6.53;;;22.40;39.10;;;;;;6061123;28;81356;-64
2022/01/27 02:02:13;;;;;;;9.93;5.70;;;22.40;39.20;;;;;;6054845;28;81121;-64
2022/01/27 02:05:13;;;;;;;8.13;5.28;;;22.40;39.20;;;;;;6063617;28;80389;-64
2022/01/27 02:18:07;;;;;;;9.00;5.50;;;22.40;39.10;;;;;;6057509;28;81612;-64
2022/01/27 02:21:07;;;;;;;11.00;6.00;;;22.40;39.20;;;;;;6055919;28;80965;-64
2022/01/27 02:24:08;;;;;;;8.43;4.97;;;22.40;39.30;;;;;;6050048;28;80678;-64
2022/01/27 02:27:08;;;;;;;8.32;5.40;;;22.40;39.00;;;;;;6062664;28;80921;-64
2022/01/27 02:30:09;;;;;;;8.77;5.32;;;22.40;38.80;;;;;;6060183;28;80350;-64
2022/01/27 02:33:09;;;;;;;6.97;4.93;;;22.40;38.70;;;;;;6054991;28;80435;-64
2022/01/27 02:36:10;;;;;;;6.05;4.70;;;22.40;38.60;;;;;;6063268;28;80738;-64
2022/01/27 02:39:10;;;;;;;7.75;5.10;;;22.40;38.60;;;;;;6062552;28;80911;-63
2022/01/27 02:42:11;;;;;;;8.10;4.70;;;22.40;38.60;;;;;;6063363;28;80661;-63
2022/01/27 02:45:11;;;;;;;8.02;5.07;;;22.40;38.60;;;;;;6068728;28;82450;-63
2022/01/27 02:48:12;;;;;;;8.50;5.88;;;22.40;38.50;;;;;;6068816;28;80445;-62
2022/01/27 02:51:13;;;;;;;7.60;4.75;;;22.40;38.50;;;;;;6064957;28;80804;-63
2022/01/27 02:54:13;;;;;;;8.13;5.47;;;22.40;38.40;;;;;;6062885;28;85065;-63
2022/01/27 02:57:13;;;;;;;7.72;4.93;;;22.40;38.60;;;;;;6064985;28;80352;-64
2022/01/27 03:00:14;;;;;;;7.25;5.15;;;22.40;38.40;;;;;;6066212;28;81447;-63
2022/01/27 03:03:15;;;;;;;8.93;5.07;;;22.40;38.00;;;;;;6062510;28;80564;-63
2022/01/27 03:06:15;;;;;;;7.97;5.72;;;22.50;37.90;;;;;;6063211;28;80793;-63
2022/01/27 03:09:16;;;;;;;7.95;5.63;;;22.50;37.80;;;;;;6063916;28;80420;-63
2022/01/27 03:12:17;;;;;;;7.35;5.43;;;22.50;37.80;;;;;;6062897;28;80722;-63
2022/01/27 03:15:17;;;;;;;7.88;5.30;;;22.50;37.60;;;;;;6065162;28;80805;-63
2022/01/27 03:18:18;;;;;;;5.93;4.45;;;22.60;37.60;;;;;;6062472;28;87598;-63
2022/01/27 03:21:18;;;;;;;6.93;4.75;;;22.60;37.50;;;;;;6060450;28;83580;-63
2022/01/27 03:24:19;;;;;;;9.43;5.38;;;22.60;37.40;;;;;;6062960;28;80424;-62
2022/01/27 03:27:23;;;;;;;7.00;5.03;;;22.70;37.30;;;;;;6061715;28;80908;-63
2022/01/27 03:30:24;;;;;;;7.28;5.07;;;22.70;37.20;;;;;;6076384;28;80560;-63
2022/01/27 03:33:24;;;;;;;7.45;5.03;;;22.70;37.20;;;;;;6069556;28;80706;-63
2022/01/27 03:36:25;;;;;;;9.65;5.28;;;22.80;37.20;;;;;;6068007;28;80623;-64
2022/01/27 03:39:27;;;;;;;7.63;5.25;;;22.80;37.00;;;;;;6062528;28;80721;-64
2022/01/27 03:42:28;;;;;;;8.48;5.03;;;22.80;37.00;;;;;;6050150;28;80867;-63
2022/01/27 03:45:29;;;;;;;7.57;5.05;;;22.80;37.00;;;;;;6067278;28;80442;-63
2022/01/27 03:48:29;;;;;;;6.40;4.53;;;22.80;36.90;;;;;;6066886;28;82124;-63
2022/01/27 03:51:30;;;;;;;6.85;4.70;;;22.90;36.90;;;;;;6081173;28;80359;-62
2022/01/27 03:54:30;;;;;;;6.43;4.30;;;22.80;36.80;;;;;;6062130;28;80596;-63
2022/01/27 03:57:31;;;;;;;6.53;4.25;;;22.90;36.80;;;;;;6055456;28;80410;-63
2022/01/27 04:00:31;;;;;;;7.63;5.43;;;22.90;36.80;;;;;;6066937;28;81260;-63
2022/01/27 04:03:33;;;;;;;6.28;4.15;;;22.90;36.70;;;;;;6068867;28;80454;-62
2022/01/27 04:06:36;;;;;;;6.45;3.92;;;22.90;36.60;;;;;;6066364;28;80765;-63
2022/01/27 04:09:36;;;;;;;6.75;4.70;;;22.90;36.60;;;;;;6064247;28;82910;-63
2022/01/27 04:12:36;;;;;;;5.45;3.67;;;22.90;36.40;;;;;;6067696;28;81216;-63
2022/01/27 04:15:37;;;;;;;7.97;4.78;;;23.00;36.50;;;;;;6055267;28;80487;-63
2022/01/27 04:18:38;;;;;;;6.72;4.75;;;23.00;36.30;;;;;;6060564;28;80214;-63
2022/01/27 04:21:38;;;;;;;5.90;4.38;;;23.00;36.30;;;;;;6063376;28;80346;-63
2022/01/27 04:24:39;;;;;;;5.63;3.92;;;23.00;36.20;;;;;;6055230;28;80339;-63
2022/01/27 04:27:42;;;;;;;6.28;4.03;;;23.00;36.20;;;;;;6063949;28;81584;-63
2022/01/27 04:30:43;;;;;;;4.60;3.60;;;23.00;36.10;;;;;;6065112;28;80551;-63
2022/01/27 04:33:43;;;;;;;6.30;4.10;;;23.00;36.10;;;;;;6067395;28;80541;-62
2022/01/27 04:36:45;;;;;;;6.15;3.65;;;23.00;36.10;;;;;;6066207;28;80740;-63
2022/01/27 04:39:58;;;;;;;5.63;4.30;;;23.00;36.00;;;;;;6072742;28;82047;-64
2022/01/27 04:49:21;;;;;;;4.45;3.75;;;23.00;35.90;;;;;;6064000;28;81640;-63
2022/01/27 04:52:22;;;;;;;5.45;3.72;;;23.00;36.00;;;;;;6065423;28;80131;-64
2022/01/27 04:55:24;;;;;;;7.90;4.50;;;23.00;35.90;;;;;;6051959;28;81881;-63
2022/01/27 04:58:31;;;;;;;4.45;2.97;;;23.00;36.00;;;;;;6060465;28;80568;-63
2022/01/27 05:01:41;;;;;;;5.80;3.30;;;23.00;36.70;;;;;;6064934;28;80391;-63
2022/01/27 05:04:43;;;;;;;4.95;3.30;;;23.00;36.50;;;;;;6057849;28;82210;-62
2022/01/27 05:07:45;;;;;;;6.57;4.15;;;23.00;36.20;;;;;;6064094;28;80320;-64
2022/01/27 05:10:57;;;;;;;7.55;3.60;;;22.90;36.20;;;;;;6058796;28;80551;-63
2022/01/27 05:14:04;;;;;;;3.70;2.83;;;22.90;36.40;;;;;;6051548;28;81568;-63
2022/01/27 05:17:04;;;;;;;5.32;3.60;;;22.90;36.90;;;;;;6055124;28;81292;-63
2022/01/27 05:20:05;;;;;;;4.30;3.35;;;22.90;37.00;;;;;;6058476;28;82167;-62
2022/01/27 05:23:05;;;;;;;4.53;3.35;;;22.90;37.60;;;;;;6058838;28;80534;-62
2022/01/27 05:26:06;;;;;;;5.35;3.47;;;22.90;37.70;;;;;;6061716;28;80508;-62
2022/01/27 05:29:08;;;;;;;4.53;3.15;;;22.90;38.30;;;;;;6061659;28;80274;-63
2022/01/27 05:32:08;;;;;;;4.22;3.33;;;22.90;38.90;;;;;;6052778;28;80471;-63
2022/01/27 05:35:09;;;;;;;5.75;3.22;;;22.90;38.60;;;;;;6059804;28;81023;-62
2022/01/27 05:38:09;;;;;;;5.25;3.50;;;22.90;38.70;;;;;;6063856;28;80470;-63
2022/01/27 05:41:10;;;;;;;7.97;3.80;;;22.90;39.00;;;;;;6064078;28;80480;-62
2022/01/27 05:44:10;;;;;;;5.85;3.53;;;23.00;39.30;;;;;;6062989;28;81570;-62
2022/01/27 05:47:11;;;;;;;6.88;3.88;;;23.00;39.70;;;;;;6063981;28;81544;-62
2022/01/27 05:50:11;;;;;;;8.50;3.65;;;23.00;39.80;;;;;;6064199;28;80473;-62
2022/01/27 05:53:12;;;;;;;5.72;3.47;;;22.90;40.20;;;;;;6045980;28;83477;-63
2022/01/27 05:56:13;;;;;;;6.85;3.58;;;23.00;40.30;;;;;;6073168;28;80220;-63
2022/01/27 05:59:13;;;;;;;9.88;4.05;;;22.90;40.70;;;;;;6065322;28;80802;-63
2022/01/27 06:02:14;;;;;;;6.03;4.35;;;22.90;40.80;;;;;;6056229;28;80589;-63
2022/01/27 06:05:14;;;;;;;6.45;3.97;;;22.90;40.50;;;;;;6061967;28;81821;-63
2022/01/27 06:08:15;;;;;;;7.13;4.05;;;22.90;41.30;;;;;;6064472;28;81871;-63
2022/01/27 06:11:15;;;;;;;5.90;3.53;;;22.90;42.10;;;;;;6063610;28;81382;-62
2022/01/27 06:14:16;;;;;;;9.68;4.60;;;22.80;42.40;;;;;;6070337;28;80480;-62
2022/01/27 06:17:16;;;;;;;6.63;4.07;;;22.90;41.70;;;;;;6061882;28;80441;-62
2022/01/27 06:20:18;;;;;;;7.45;3.90;;;22.90;41.50;;;;;;6061654;28;80290;-63
2022/01/27 06:23:18;;;;;;;8.95;3.78;;;22.90;41.70;;;;;;6062467;28;80452;-62
2022/01/27 06:26:19;;;;;;;5.75;3.33;;;22.80;43.00;;;;;;6062967;28;80432;-61
2022/01/27 06:29:19;;;;;;;4.15;2.88;;;22.70;44.30;;;;;;6061113;28;80475;-60
2022/01/27 06:32:20;;;;;;;8.60;3.05;;;22.60;44.70;;;;;;6063670;28;80519;-60
2022/01/27 06:35:20;;;;;;;3.80;2.80;;;22.60;45.30;;;;;;6043834;28;80831;-61
2022/01/27 06:38:20;;;;;;;5.82;2.80;;;22.70;45.50;;;;;;6059660;28;83022;-61
2022/01/27 06:41:21;;;;;;;3.95;2.55;;;22.60;45.80;;;;;;6058023;28;80738;-62
2022/01/27 06:44:21;;;;;;;3.40;2.60;;;22.60;45.70;;;;;;6065171;28;80686;-62
2022/01/27 06:47:22;;;;;;;3.63;2.50;;;22.60;46.90;;;;;;6047538;28;80656;-64
2022/01/27 06:50:23;;;;;;;6.68;3.53;;;22.60;48.00;;;;;;6057559;28;80643;-62
2022/01/27 06:53:23;;;;;;;4.00;2.60;;;22.60;48.30;;;;;;6051796;28;80297;-61
2022/01/27 06:56:24;;;;;;;6.85;3.45;;;22.60;48.20;;;;;;6051634;28;81597;-62
2022/01/27 06:59:24;;;;;;;7.20;4.45;;;22.60;47.80;;;;;;6058426;28;81529;-64
2022/01/27 07:02:25;;;;;;;9.00;4.25;;;22.60;47.80;;;;;;6065677;28;80463;-61
2022/01/27 07:05:25;;;;;;;6.80;3.88;;;22.60;47.70;;;;;;6056950;28;80951;-61
2022/01/27 07:08:26;;;;;;;7.10;3.65;;;22.60;48.00;;;;;;6055506;28;81402;-62
2022/01/27 07:11:26;;;;;;;7.57;3.55;;;22.60;48.10;;;;;;6053499;28;80306;-62
2022/01/27 07:14:27;;;;;;;5.38;3.13;;;22.60;48.20;;;;;;6041418;28;81451;-62
2022/01/27 07:17:28;;;;;;;6.10;3.05;;;22.50;48.40;;;;;;6077177;28;83926;-63
2022/01/27 07:20:29;;;;;;;5.00;2.55;;;22.50;48.50;;;;;;6077801;28;81260;-63
2022/01/27 07:23:29;;;;;;;4.30;3.33;;;22.50;48.50;;;;;;6063637;28;80305;-64
2022/01/27 07:26:30;;;;;;;8.98;3.45;;;22.50;48.10;;;;;;6065079;28;81437;-63
2022/01/27 07:29:30;;;;;;;4.25;3.15;;;22.50;48.00;;;;;;6054385;28;81686;-63
2022/01/27 07:32:31;;;;;;;9.43;2.83;;;22.60;47.50;;;;;;6061689;28;81447;-63
2022/01/27 07:35:32;;;;;;;6.10;3.25;;;22.60;47.30;;;;;;6064120;28;80948;-63
2022/01/27 07:38:32;;;;;;;4.87;3.37;;;22.60;47.20;;;;;;6006323;28;1187621;-63
2022/01/27 07:41:33;;;;;;;6.05;3.65;;;22.60;47.00;;;;;;6067039;28;80294;-62
2022/01/27 07:44:33;;;;;;;6.63;3.90;;;22.60;46.70;;;;;;6061470;28;80818;-63
2022/01/27 07:47:34;;;;;;;5.85;3.97;;;22.60;46.80;;;;;;6066205;28;80811;-62
2022/01/27 07:50:34;;;;;;;5.30;3.80;;;22.60;46.20;;;;;;6057687;28;80807;-63
2022/01/27 07:53:35;;;;;;;5.85;3.90;;;22.60;46.30;;;;;;6055751;28;81772;-62
2022/01/27 07:56:35;;;;;;;6.20;4.03;;;22.60;45.90;;;;;;6066558;28;81054;-63
2022/01/27 07:59:36;;;;;;;7.10;4.30;;;22.60;46.10;;;;;;6053978;28;80883;-63
2022/01/27 08:02:36;;;;;;;8.48;4.60;;;22.60;46.00;;;;;;6064661;28;80674;-62
2022/01/27 08:05:37;;;;;;;8.50;4.03;;;22.60;46.00;;;;;;6052157;28;81061;-63
2022/01/27 08:08:38;;;;;;;5.95;4.00;;;22.70;46.50;;;;;;6055586;28;81895;-62
2022/01/27 08:11:39;;;;;;;8.93;4.53;;;22.70;45.70;;;;;;6048562;28;81012;-62
2022/01/27 08:14:39;;;;;;;6.57;4.53;;;22.70;46.00;;;;;;6061961;28;80947;-64
2022/01/27 08:17:40;;;;;;;8.63;4.40;;;22.70;45.50;;;;;;6060819;28;80604;-62
2022/01/27 08:20:40;;;;;;;6.88;4.45;;;22.70;45.50;;;;;;6071096;28;81650;-61
2022/01/27 08:23:43;;;;;;;7.05;4.45;;;22.70;45.40;;;;;;6059490;28;80901;-62
2022/01/27 08:26:46;;;;;;;9.73;4.85;;;22.70;45.40;;;;;;6060759;28;80462;-65
2022/01/27 08:29:53;;;;;;;7.45;4.95;;;22.60;45.40;;;;;;6060964;28;81673;-62
2022/01/27 08:33:00;;;;;;;9.52;4.63;;;22.70;45.20;;;;;;6057136;28;83033;-62
2022/01/27 08:36:01;;;;;;;14.32;5.40;;;22.60;45.00;;;;;;6058929;28;80549;-63
2022/01/27 08:39:01;;;;;;;11.98;5.50;;;22.70;45.10;;;;;;6063789;28;80698;-62
2022/01/27 08:42:02;;;;;;;9.43;5.32;;;22.70;45.00;;;;;;6067123;28;80841;-63
2022/01/27 08:45:02;;;;;;;8.15;5.10;;;22.70;45.10;;;;;;6064261;28;81663;-63
2022/01/27 08:48:03;;;;;;;11.35;4.38;;;22.70;45.00;;;;;;6062939;28;80103;-64
2022/01/27 08:51:06;;;;;;;7.30;4.53;;;22.70;45.30;;;;;;6060836;28;80972;-66
2022/01/27 08:54:06;;;;;;;9.25;4.60;;;22.70;45.40;;;;;;6061421;28;80421;-66
2022/01/27 08:57:06;;;;;;;9.25;5.25;;;22.70;45.70;;;;;;6057504;28;84315;-66
2022/01/27 09:00:07;;;;;;;7.00;4.88;;;22.70;45.60;;;;;;6037591;28;80418;-62
2022/01/27 09:03:08;;;;;;;7.25;4.88;;;22.60;45.70;;;;;;6064503;28;81293;-63
2022/01/27 09:06:08;;;;;;;88.25;38.33;;;22.60;45.40;;;;;;6066968;28;81464;-65
2022/01/27 09:09:09;;;;;;;186.05;85.05;;;22.60;46.10;;;;;;6060715;28;83640;-62
2022/01/27 09:12:09;;;;;;;159.30;81.85;;;22.70;46.30;;;;;;6059264;28;83077;-62
2022/01/27 09:15:10;;;;;;;150.00;69.70;;;22.70;46.20;;;;;;6061811;28;82920;-63
2022/01/27 09:18:10;;;;;;;100.00;47.55;;;22.70;46.10;;;;;;6060038;28;83223;-63
2022/01/27 09:21:16;;;;;;;123.35;57.20;;;22.70;45.80;;;;;;6044657;28;84782;-63
2022/01/27 09:24:18;;;;;;;242.15;112.53;;;22.70;45.90;;;;;;6043409;28;85429;-62
2022/01/27 09:27:19;;;;;;;282.13;137.60;;;22.70;46.10;;;;;;6057515;28;85655;-62
2022/01/27 09:30:20;;;;;;;299.13;139.77;;;22.70;46.30;;;;;;6056237;28;86234;-62
2022/01/27 09:33:20;;;;;;;289.67;135.48;;;22.70;46.00;;;;;;6058853;28;85831;-62
2022/01/27 09:36:21;;;;;;;227.30;106.60;;;22.70;46.40;;;;;;6070004;28;88508;-62
2022/01/27 09:39:23;;;;;;;191.45;88.13;;;22.60;45.70;;;;;;6056739;28;85488;-63
2022/01/27 09:42:28;;;;;;;165.90;81.80;;;22.60;46.00;;;;;;6058274;28;85901;-63
2022/01/27 09:45:30;;;;;;;141.02;66.85;;;22.60;45.70;;;;;;6051724;28;83411;-63
2022/01/27 09:48:36;;;;;;;140.45;64.65;;;22.60;45.50;;;;;;6051415;28;84149;-63
2022/01/27 09:51:43;;;;;;;131.00;60.22;;;22.60;45.10;;;;;;6051394;28;83583;-64
2022/01/27 09:54:45;;;;;;;110.82;52.22;;;22.60;45.50;;;;;;6061206;28;83099;-63
2022/01/27 09:57:46;;;;;;;95.10;45.70;;;22.60;45.40;;;;;;6060167;28;83353;-64
2022/01/27 10:00:46;;;;;;;93.53;43.70;;;22.70;45.80;;;;;;6060114;28;82931;-63
2022/01/27 10:03:47;;;;;;;76.53;37.38;;;22.70;45.40;;;;;;6057039;28;83945;-62
2022/01/27 10:06:48;;;;;;;68.85;34.92;;;22.70;45.40;;;;;;6057366;28;83696;-63
2022/01/27 10:09:49;;;;;;;67.80;31.83;;;22.70;45.40;;;;;;6049500;28;83217;-63
2022/01/27 10:12:50;;;;;;;65.10;31.10;;;22.70;45.90;;;;;;6060582;28;84272;-64
2022/01/27 10:15:51;;;;;;;63.55;29.52;;;22.70;46.00;;;;;;6056738;28;85008;-62
2022/01/27 10:18:51;;;;;;;59.53;29.10;;;22.70;46.20;;;;;;6057511;28;84484;-62
2022/01/27 10:21:52;;;;;;;56.25;25.38;;;22.70;46.60;;;;;;6057680;28;89176;-63
2022/01/27 10:24:52;;;;;;;48.97;25.38;;;22.70;47.20;;;;;;6049103;28;83162;-63
2022/01/27 10:28:08;;;;;;;46.13;23.55;;;22.70;47.30;;;;;;6041097;28;85382;-62
2022/01/27 10:31:09;;;;;;;42.80;21.48;;;22.70;47.60;;;;;;6038680;28;84623;-63
2022/01/27 10:34:10;;;;;;;45.20;21.98;;;22.70;47.70;;;;;;6059969;28;82794;-62
2022/01/27 10:37:11;;;;;;;35.45;19.75;;;22.70;48.00;;;;;;6059053;28;83450;-64
2022/01/27 10:40:11;;;;;;;46.10;20.85;;;22.70;48.20;;;;;;6056852;28;82756;-62
2022/01/27 10:43:12;;;;;;;40.15;19.33;;;22.70;47.90;;;;;;6058563;28;84354;-63
2022/01/27 10:46:20;;;;;;;43.72;19.98;;;22.70;48.00;;;;;;6058556;28;84169;-64
2022/01/27 10:49:27;;;;;;;39.83;16.75;;;22.70;48.00;;;;;;6040721;28;87746;-64
2022/01/27 10:52:36;;;;;;;38.42;18.67;;;22.70;47.90;;;;;;6070765;28;82833;-63
2022/01/27 10:55:37;;;;;;;36.10;17.92;;;22.70;48.40;;;;;;6053169;28;83411;-63
2022/01/27 10:58:37;;;;;;;29.55;15.15;;;22.70;48.30;;;;;;6058746;28;84796;-63
2022/01/27 11:01:38;;;;;;;29.17;14.05;;;22.70;49.00;;;;;;6050155;28;83077;-62
2022/01/27 11:04:38;;;;;;;35.13;14.02;;;22.70;48.80;;;;;;6053066;28;83385;-63
2022/01/27 11:07:39;;;;;;;27.65;13.07;;;22.70;48.70;;;;;;6041842;28;86143;-62
2022/01/27 11:10:41;;;;;;;31.15;13.90;;;22.70;48.40;;;;;;6069957;28;83535;-64
2022/01/27 11:13:44;;;;;;;22.25;12.15;;;22.70;48.20;;;;;;6056912;28;82865;-64
2022/01/27 11:16:45;;;;;;;16.70;10.55;;;22.70;47.80;;;;;;6041331;28;83146;-64
2022/01/27 11:22:59;;;;;;;20.15;10.20;;;22.70;48.10;;;;;;6056359;28;83073;-64
2022/01/27 11:26:00;;;;;;;22.38;10.25;;;22.70;47.80;;;;;;6054206;28;84388;-64
2022/01/27 11:29:00;;;;;;;19.70;10.68;;;22.70;48.30;;;;;;6057982;28;84693;-64
2022/01/27 11:32:01;;;;;;;17.30;9.80;;;22.70;49.00;;;;;;6059599;28;83406;-64
2022/01/27 11:35:01;;;;;;;18.02;9.52;;;22.70;49.20;;;;;;6061985;28;83879;-64
2022/01/27 11:38:03;;;;;;;16.88;9.63;;;22.70;49.40;;;;;;6060719;28;81685;-65
2022/01/27 11:41:04;;;;;;;17.48;9.50;;;22.70;49.40;;;;;;6060814;28;80729;-64
2022/01/27 11:44:04;;;;;;;18.00;8.25;;;22.70;49.10;;;;;;6059865;28;81933;-65
2022/01/27 11:47:05;;;;;;;15.60;8.88;;;22.70;49.30;;;;;;6060762;28;81597;-65
2022/01/27 11:50:22;;;;;;;13.23;8.07;;;22.80;49.00;;;;;;6062190;28;80519;-63
2022/01/27 11:53:22;;;;;;;12.25;7.68;;;22.80;49.20;;;;;;6060269;28;84314;-65
2022/01/27 11:56:23;;;;;;;13.80;7.78;;;22.80;49.20;;;;;;6062892;28;81014;-64
2022/01/27 11:59:23;;;;;;;16.40;7.63;;;22.80;48.90;;;;;;6059832;28;80425;-64
2022/01/27 12:02:24;;;;;;;23.45;8.95;;;22.80;48.90;;;;;;6041881;28;81813;-64
2022/01/27 12:05:24;;;;;;;14.60;8.48;;;22.80;49.00;;;;;;6049713;28;81517;-66
2022/01/27 12:08:25;;;;;;;17.33;8.20;;;22.80;49.00;;;;;;6059808;28;82260;-64
2022/01/27 12:11:26;;;;;;;13.07;6.93;;;22.80;48.90;;;;;;6059154;28;81915;-67
2022/01/27 12:14:29;;;;;;;12.88;7.35;;;22.80;48.70;;;;;;6066300;28;81525;-65
2022/01/27 12:17:30;;;;;;;17.33;6.95;;;22.80;48.80;;;;;;6064226;28;81194;-64
2022/01/27 12:20:30;;;;;;;14.45;7.50;;;22.80;48.50;;;;;;6064010;28;84095;-65
2022/01/27 12:23:31;;;;;;;11.73;6.25;;;22.80;48.30;;;;;;6063934;28;81038;-64
2022/01/27 12:26:31;;;;;;;10.38;6.13;;;22.80;47.70;;;;;;6047784;28;82116;-65
2022/01/27 12:29:32;;;;;;;14.82;5.78;;;22.80;47.80;;;;;;6069738;28;86418;-65
2022/01/27 12:32:32;;;;;;;11.95;6.15;;;22.70;47.90;;;;;;6049502;28;81388;-64
2022/01/27 12:35:33;;;;;;;8.00;5.50;;;22.80;47.80;;;;;;6067538;28;80915;-64
2022/01/27 12:38:33;;;;;;;9.25;5.03;;;22.80;47.50;;;;;;6065102;28;80489;-65
2022/01/27 12:41:34;;;;;;;8.93;4.85;;;22.80;47.10;;;;;;6065426;28;81145;-64
2022/01/27 12:44:35;;;;;;;7.43;4.68;;;22.80;47.60;;;;;;6064487;28;81641;-65
2022/01/27 12:47:35;;;;;;;8.20;5.63;;;22.80;47.60;;;;;;6064342;28;82190;-64
2022/01/27 12:50:37;;;;;;;9.98;4.80;;;22.80;47.80;;;;;;6064761;28;80197;-64
2022/01/27 12:53:37;;;;;;;8.73;4.60;;;22.90;47.70;;;;;;6063335;28;80191;-65
2022/01/27 12:56:38;;;;;;;6.53;4.10;;;22.90;47.10;;;;;;6032023;28;83897;-65
2022/01/27 12:59:38;;;;;;;8.77;4.80;;;23.00;46.90;;;;;;6053659;28;80383;-66
2022/01/27 13:02:39;;;;;;;8.43;4.85;;;23.00;46.70;;;;;;6055657;28;80932;-66
2022/01/27 13:05:39;;;;;;;5.95;3.75;;;23.00;46.90;;;;;;6064384;28;80919;-66
2022/01/27 13:08:43;;;;;;;11.55;4.93;;;23.10;47.10;;;;;;6063755;28;82106;-65
2022/01/27 13:11:46;;;;;;;6.88;4.45;;;23.10;47.20;;;;;;6063600;28;87777;-66
2022/01/27 13:14:46;;;;;;;8.32;4.45;;;23.10;46.90;;;;;;6061367;28;80790;-66
2022/01/27 13:17:51;;;;;;;7.50;4.30;;;23.20;46.90;;;;;;6067424;28;81807;-67
2022/01/27 13:20:55;;;;;;;6.50;4.03;;;23.20;46.60;;;;;;6059640;28;80403;-66
2022/01/27 13:23:56;;;;;;;6.80;4.15;;;23.20;46.20;;;;;;6045373;28;81392;-67
2022/01/27 13:26:56;;;;;;;12.73;4.50;;;23.20;46.00;;;;;;6057375;28;80994;-67
2022/01/27 13:29:59;;;;;;;7.30;3.92;;;23.20;46.00;;;;;;6065375;28;80530;-65
2022/01/27 13:33:00;;;;;;;6.55;4.03;;;23.20;45.80;;;;;;6061776;28;80391;-66
2022/01/27 13:36:00;;;;;;;11.27;4.75;;;23.20;45.70;;;;;;6054738;28;80778;-67
2022/01/27 13:39:13;;;;;;;9.68;4.60;;;23.20;45.60;;;;;;6063494;28;81577;-66
2022/01/27 13:42:13;;;;;;;8.45;4.78;;;23.20;45.60;;;;;;6067495;28;81008;-65
2022/01/27 13:45:14;;;;;;;6.65;4.18;;;23.20;46.10;;;;;;6057408;28;81065;-66
2022/01/27 13:48:14;;;;;;;7.47;4.75;;;23.20;46.10;;;;;;6061087;28;80470;-67
2022/01/27 13:51:15;;;;;;;8.25;4.85;;;23.20;46.50;;;;;;6055468;28;80354;-68
2022/01/27 13:54:15;;;;;;;6.57;4.32;;;23.30;46.90;;;;;;6053630;28;83509;-68
2022/01/27 13:57:16;;;;;;;9.35;4.78;;;23.30;47.00;;;;;;6060598;28;80881;-68
2022/01/27 14:00:20;;;;;;;7.20;4.57;;;23.30;46.90;;;;;;6058622;28;80449;-67
2022/01/27 14:03:21;;;;;;;8.38;5.07;;;23.20;46.60;;;;;;6043146;28;80653;-67
2022/01/27 14:06:22;;;;;;;11.98;5.65;;;23.30;46.50;;;;;;6062783;28;80174;-68
2022/01/27 14:09:24;;;;;;;7.53;5.22;;;23.20;46.10;;;;;;6063169;28;80896;-68
2022/01/27 14:12:30;;;;;;;9.25;5.22;;;23.20;45.80;;;;;;6061035;28;80773;-67
2022/01/27 14:15:31;;;;;;;;;;;23.20;45.50;;;;;;6061839;28;80786;-67
2022/01/27 14:18:31;;;;;;;9.48;5.75;;;23.10;45.40;;;;;;6063244;28;81452;-67
2022/01/27 14:21:32;;;;;;;10.60;5.47;;;23.10;45.10;;;;;;6053785;28;80548;-67
2022/01/27 14:24:43;;;;;;;10.65;6.00;;;23.20;45.20;;;;;;6060357;28;80806;-67
2022/01/27 14:27:44;;;;;;;10.63;5.72;;;23.10;45.00;;;;;;6056859;28;80736;-66
2022/01/27 14:30:45;;;;;;;10.00;5.80;;;23.10;44.90;;;;;;6038751;28;81230;-68
2022/01/27 14:33:45;;;;;;;8.07;5.40;;;23.10;44.70;;;;;;6054292;28;80513;-67
2022/01/27 14:36:46;;;;;;;10.80;5.80;;;23.10;44.40;;;;;;6057808;28;80688;-69
2022/01/27 14:39:46;;;;;;;10.70;7.05;;;23.10;44.30;;;;;;6062565;28;80484;-68
2022/01/27 14:42:47;;;;;;;11.75;6.32;;;23.10;44.00;;;;;;6050070;28;80863;-64
2022/01/27 14:45:50;;;;;;;12.02;6.25;;;23.10;44.00;;;;;;6061034;28;80297;-64
2022/01/27 14:48:54;;;;;;;11.68;6.57;;;23.10;43.50;;;;;;6055257;28;80869;-64
2022/01/27 14:51:55;;;;;;;10.93;6.40;;;23.10;43.60;;;;;;6055519;28;83088;-65
2022/01/27 14:54:55;;;;;;;12.05;6.65;;;23.00;43.80;;;;;;6061171;28;81672;-65
2022/01/27 14:57:56;;;;;;;9.65;5.88;;;23.00;44.00;;;;;;6063455;28;80829;-66
2022/01/27 15:00:56;;;;;;;9.65;6.32;;;23.00;44.00;;;;;;6062384;28;80394;-66
2022/01/27 15:03:57;;;;;;;10.45;6.72;;;23.00;44.10;;;;;;6058948;28;80918;-64
2022/01/27 15:06:57;;;;;;;10.27;6.05;;;23.00;43.70;;;;;;6067142;28;80851;-65
2022/01/27 15:09:58;;;;;;;9.30;6.28;;;23.10;43.70;;;;;;6070346;28;80502;-65
2022/01/27 15:12:58;;;;;;;11.45;6.45;;;23.00;44.30;;;;;;6059777;28;80557;-66
2022/01/27 15:22:20;;;;;;;10.85;5.95;;;23.00;44.20;;;;;;6055019;28;81622;-64
2022/01/27 15:25:22;;;;;;;11.20;6.63;;;22.90;44.00;;;;;;6060967;28;81160;-64
2022/01/27 15:28:23;;;;;;;11.30;6.72;;;22.90;44.10;;;;;;6070074;28;81658;-64
2022/01/27 15:31:23;;;;;;;11.73;6.90;;;22.90;44.10;;;;;;6058715;28;80434;-64
2022/01/27 15:34:24;;;;;;;12.00;7.28;;;22.80;43.60;;;;;;6045978;28;80870;-64
2022/01/27 15:37:25;;;;;;;11.75;6.75;;;22.80;43.80;;;;;;6063731;28;80523;-66
2022/01/27 15:40:27;;;;;;;11.88;7.00;;;22.80;43.60;;;;;;6064462;28;81606;-67
2022/01/27 15:43:27;;;;;;;106.28;49.10;;;22.80;43.50;;;;;;6066185;28;80550;-67
2022/01/27 15:46:28;;;;;;;113.05;57.15;;;22.80;44.00;;;;;;6059857;28;84266;-68
2022/01/27 15:49:29;;;;;;;147.60;70.63;;;22.80;44.20;;;;;;6062825;28;83543;-68
2022/01/27 15:52:32;;;;;;;159.55;77.50;;;22.80;44.40;;;;;;6048684;28;85538;-67
2022/01/27 15:55:33;;;;;;;226.98;108.38;;;22.80;45.00;;;;;;6061111;28;83137;-66
2022/01/27 15:58:33;;;;;;;245.68;113.20;;;22.80;44.90;;;;;;6065482;28;85663;-65
2022/01/27 16:01:34;;;;;;;205.60;97.85;;;22.80;45.30;;;;;;6056388;28;87597;-65
2022/01/27 16:04:34;;;;;;;172.70;82.82;;;22.80;45.50;;;;;;6055766;28;85319;-66
2022/01/27 16:07:35;;;;;;;143.13;68.20;;;22.80;45.30;;;;;;6061319;28;85215;-66
2022/01/27 16:10:36;;;;;;;128.05;59.90;;;22.80;45.40;;;;;;6073598;28;84761;-65
2022/01/27 16:13:36;;;;;;;108.25;50.53;;;22.80;45.60;;;;;;6060409;28;83213;-65
2022/01/27 16:16:37;;;;;;;82.90;42.30;;;22.80;45.90;;;;;;6055625;28;84261;-65
2022/01/27 16:19:37;;;;;;;84.55;39.08;;;22.80;45.80;;;;;;6059309;28;83057;-65